Time;durP1;ratioP1;P1;durP2;ratioP2;P2;SDS_P1;SDS_P2;PMS_P1;PMS_P2;Temp;Humidity;BMP_temperature;BMP_pressure;BME280_temperature;BME280_humidity;BME280_pressure;Samples;Min_cycle;Max_cycle;Signal;HPM_P1;HPM_P2
2023/05/16 00:01:18;;;;;;;19.73;11.80;;;13.80;99.90;;;;;;5030424;28;20025;-70
2023/05/16 00:03:44;;;;;;;14.93;11.57;;;13.90;99.90;;;;;;5030631;28;20029;-72
2023/05/16 00:06:10;;;;;;;20.90;10.75;;;13.80;99.90;;;;;;5030707;28;20040;-73
2023/05/16 00:08:36;;;;;;;14.23;11.27;;;13.80;99.90;;;;;;5030126;28;20034;-73
2023/05/16 00:11:01;;;;;;;16.17;11.60;;;13.90;99.90;;;;;;5030353;28;20031;-71
2023/05/16 00:13:28;;;;;;;15.73;11.20;;;13.80;99.90;;;;;;5030217;28;20287;-71
2023/05/16 00:15:55;;;;;;;13.63;10.80;;;13.80;99.90;;;;;;5029901;28;20509;-71
2023/05/16 00:18:21;;;;;;;14.18;10.18;;;13.80;99.90;;;;;;5030505;28;20039;-69
2023/05/16 00:20:48;;;;;;;15.50;10.90;;;13.70;99.90;;;;;;5028644;28;20035;-73
2023/05/16 00:23:14;;;;;;;14.63;10.40;;;13.70;99.90;;;;;;5030193;28;20404;-68
2023/05/16 00:25:40;;;;;;;18.27;10.90;;;13.60;99.90;;;;;;5029598;28;20033;-70
2023/05/16 00:28:07;;;;;;;12.77;10.70;;;13.60;99.90;;;;;;5030432;28;20032;-69
2023/05/16 00:30:33;;;;;;;15.00;11.77;;;13.70;99.90;;;;;;5029773;28;20033;-72
2023/05/16 00:32:58;;;;;;;14.30;11.30;;;13.60;99.90;;;;;;5030082;28;20034;-72
2023/05/16 00:35:24;;;;;;;15.80;12.00;;;13.50;99.90;;;;;;5024632;28;20116;-70
2023/05/16 00:37:50;;;;;;;15.47;11.93;;;13.50;99.90;;;;;;5030544;28;20049;-72
2023/05/16 00:40:15;;;;;;;17.73;11.82;;;13.50;99.90;;;;;;5030089;28;20428;-70
2023/05/16 00:42:41;;;;;;;15.93;11.80;;;13.50;99.90;;;;;;5029303;28;20037;-72
2023/05/16 00:45:08;;;;;;;18.35;12.95;;;13.60;99.90;;;;;;5030506;28;20032;-72
2023/05/16 00:47:35;;;;;;;17.77;12.43;;;13.60;99.90;;;;;;5033931;28;20033;-69
2023/05/16 00:50:01;;;;;;;19.23;13.48;;;13.50;99.90;;;;;;5028282;28;20021;-69
2023/05/16 00:52:27;;;;;;;19.70;13.18;;;13.60;99.90;;;;;;5031447;28;20460;-70
2023/05/16 00:54:53;;;;;;;19.75;12.30;;;13.60;99.90;;;;;;5038056;28;20025;-71
2023/05/16 00:57:19;;;;;;;16.33;12.35;;;13.60;99.90;;;;;;5029366;28;20043;-69
2023/05/16 00:59:46;;;;;;;18.33;13.13;;;13.60;99.90;;;;;;5032681;28;20091;-70
2023/05/16 01:02:12;;;;;;;;;;;13.60;99.90;;;;;;5030995;28;20051;-69
2023/05/16 01:04:38;;;;;;;19.50;13.15;;;13.60;99.90;;;;;;5029319;28;19909;-72
2023/05/16 01:07:04;;;;;;;;;;;13.70;99.90;;;;;;5023260;28;20039;-70
2023/05/16 01:09:30;;;;;;;17.73;12.95;;;13.70;99.90;;;;;;5032108;28;19912;-70
2023/05/16 01:12:05;;;;;;;19.63;13.48;;;13.70;99.90;;;;;;5028746;28;20030;-70
2023/05/16 01:14:51;;;;;;;25.00;14.40;;;13.60;99.90;;;;;;5026291;28;20028;-69
2023/05/16 01:17:28;;;;;;;20.50;13.63;;;13.60;99.90;;;;;;5022420;28;20517;-70
2023/05/16 01:20:25;;;;;;;19.60;15.30;;;13.60;99.90;;;;;;5029713;28;20521;-70
2023/05/16 01:23:04;;;;;;;18.05;14.00;;;13.50;99.90;;;;;;5029540;28;20049;-72
2023/05/16 01:25:53;;;;;;;23.02;14.45;;;13.50;99.90;;;;;;5023354;28;20040;-69
2023/05/16 01:28:19;;;;;;;23.27;15.60;;;13.40;99.90;;;;;;5031225;28;20076;-70
2023/05/16 01:30:45;;;;;;;22.23;14.25;;;13.50;99.90;;;;;;5032513;28;20439;-70
2023/05/16 01:33:11;;;;;;;22.43;15.17;;;13.50;99.90;;;;;;5034552;28;20042;-69
2023/05/16 01:35:52;;;;;;;21.33;15.38;;;13.50;99.90;;;;;;5029758;28;20036;-72
2023/05/16 01:38:21;;;;;;;22.45;14.82;;;13.40;99.90;;;;;;5027864;28;20068;-73
2023/05/16 01:41:03;;;;;;;25.70;15.63;;;13.40;99.90;;;;;;5025828;28;20072;-70
2023/05/16 01:43:34;;;;;;;22.13;15.00;;;13.40;99.90;;;;;;5025699;28;20030;-72
2023/05/16 01:46:06;;;;;;;25.63;16.23;;;13.50;99.90;;;;;;5031964;28;20041;-70
2023/05/16 01:48:42;;;;;;;21.75;16.63;;;13.40;99.90;;;;;;5028568;28;20076;-72
2023/05/16 01:51:09;;;;;;;23.77;16.27;;;13.40;99.90;;;;;;5028496;28;20033;-72
2023/05/16 01:53:38;;;;;;;30.63;17.25;;;13.50;99.90;;;;;;5028837;28;20110;-71
2023/05/16 01:56:10;;;;;;;23.40;16.27;;;13.40;99.90;;;;;;5027756;28;20029;-72
2023/05/16 01:58:36;;;;;;;24.55;16.92;;;13.40;99.90;;;;;;5026542;28;20044;-69
2023/05/16 02:01:04;;;;;;;26.70;16.33;;;13.50;99.90;;;;;;5028283;28;20029;-72
2023/05/16 02:03:30;;;;;;;22.55;15.88;;;13.40;99.90;;;;;;5030965;28;20096;-69
2023/05/16 02:05:57;;;;;;;24.88;15.40;;;13.50;99.90;;;;;;5032977;28;20029;-69
2023/05/16 02:08:23;;;;;;;24.15;16.00;;;13.50;99.90;;;;;;5025999;28;20029;-71
2023/05/16 02:10:49;;;;;;;;;;;13.50;99.90;;;;;;5027493;28;21048;-70
2023/05/16 02:13:14;;;;;;;26.42;16.50;;;13.50;99.90;;;;;;5027236;28;19919;-68
2023/05/16 02:15:40;;;;;;;25.30;16.87;;;13.40;99.90;;;;;;5027263;28;20028;-69
2023/05/16 02:18:06;;;;;;;25.05;17.73;;;13.40;99.90;;;;;;5059830;28;20037;-69
2023/05/16 02:20:32;;;;;;;24.57;17.50;;;13.40;99.90;;;;;;5028726;28;20037;-69
2023/05/16 02:22:58;;;;;;;26.38;16.50;;;13.40;99.90;;;;;;5020217;28;20082;-69
2023/05/16 02:25:23;;;;;;;27.73;17.60;;;13.50;99.90;;;;;;5021077;28;20497;-68
2023/05/16 02:27:49;;;;;;;28.93;16.83;;;13.40;99.90;;;;;;5042804;28;20026;-71
2023/05/16 02:30:14;;;;;;;26.13;16.50;;;13.40;99.90;;;;;;5021297;28;20034;-70
2023/05/16 02:32:43;;;;;;;25.10;17.17;;;13.50;99.90;;;;;;5023741;28;20103;-70
2023/05/16 02:35:09;;;;;;;30.38;16.85;;;13.40;99.90;;;;;;5025860;28;20029;-70
2023/05/16 02:37:35;;;;;;;27.70;17.83;;;13.40;99.90;;;;;;5026765;28;20639;-69
2023/05/16 02:40:02;;;;;;;25.55;17.05;;;13.50;99.90;;;;;;5031536;28;20033;-69
2023/05/16 02:42:29;;;;;;;24.67;17.27;;;13.50;99.90;;;;;;5031829;28;20029;-70
2023/05/16 02:44:55;;;;;;;24.20;17.13;;;13.40;99.90;;;;;;5038135;28;20039;-69
2023/05/16 02:47:20;;;;;;;28.73;18.57;;;13.40;99.90;;;;;;5027457;28;20037;-70
2023/05/16 02:49:46;;;;;;;29.43;18.23;;;13.30;99.90;;;;;;5032897;28;20455;-69
2023/05/16 02:52:12;;;;;;;28.37;18.80;;;13.30;99.90;;;;;;5024322;28;20067;-71
2023/05/16 02:54:37;;;;;;;29.35;18.92;;;13.20;99.90;;;;;;5028213;28;20021;-72
2023/05/16 02:57:03;;;;;;;30.43;18.00;;;13.10;99.90;;;;;;5023366;28;20040;-73
2023/05/16 02:59:29;;;;;;;26.80;16.98;;;13.10;99.90;;;;;;5044712;28;20029;-70
2023/05/16 03:01:54;;;;;;;27.43;17.77;;;13.10;99.90;;;;;;5026573;28;20033;-69
2023/05/16 03:04:21;;;;;;;30.03;17.67;;;13.10;99.90;;;;;;5033815;28;20037;-72
2023/05/16 03:06:47;;;;;;;27.55;18.85;;;13.10;99.90;;;;;;5023344;28;20025;-69
2023/05/16 03:09:13;;;;;;;30.55;18.23;;;13.20;99.90;;;;;;5026350;28;20041;-71
2023/05/16 03:11:39;;;;;;;25.92;19.20;;;13.20;99.90;;;;;;5025075;28;20441;-70
2023/05/16 03:14:04;;;;;;;31.27;18.77;;;13.30;99.90;;;;;;5027469;28;20465;-71
2023/05/16 03:16:30;;;;;;;36.00;19.80;;;13.20;99.90;;;;;;5025184;28;20053;-71
2023/05/16 03:18:56;;;;;;;35.50;20.65;;;13.20;99.90;;;;;;5028357;28;20087;-70
2023/05/16 03:21:21;;;;;;;25.20;17.83;;;13.20;99.90;;;;;;5024960;28;20029;-72
2023/05/16 03:23:47;;;;;;;30.63;18.17;;;13.10;99.90;;;;;;5031277;28;20437;-71
2023/05/16 03:26:13;;;;;;;27.05;18.15;;;13.20;99.90;;;;;;5026970;28;20036;-69
2023/05/16 03:28:39;;;;;;;29.90;18.90;;;13.20;99.90;;;;;;5027370;28;20393;-70
2023/05/16 03:31:04;;;;;;;29.20;19.40;;;13.20;99.90;;;;;;5046727;28;20307;-70
2023/05/16 03:33:30;;;;;;;32.65;20.67;;;13.20;99.90;;;;;;5030202;28;20108;-70
2023/05/16 03:35:56;;;;;;;28.83;19.50;;;13.20;99.90;;;;;;5028899;28;20033;-70
2023/05/16 03:38:22;;;;;;;30.27;18.63;;;13.20;99.90;;;;;;5024780;28;20037;-72
2023/05/16 03:40:48;;;;;;;30.10;19.80;;;13.20;99.90;;;;;;5032782;28;20112;-71
2023/05/16 03:43:14;;;;;;;31.07;20.70;;;13.20;99.90;;;;;;5028755;28;20502;-73
2023/05/16 03:45:39;;;;;;;30.77;20.30;;;13.10;99.90;;;;;;5024327;28;20519;-69
2023/05/16 03:48:05;;;;;;;34.63;19.77;;;13.10;99.90;;;;;;5028605;28;20025;-70
2023/05/16 03:50:31;;;;;;;31.13;19.67;;;13.10;99.90;;;;;;5027512;28;20492;-69
2023/05/16 03:52:56;;;;;;;29.73;18.50;;;13.20;99.90;;;;;;5024605;28;20448;-71
2023/05/16 03:55:22;;;;;;;28.63;19.63;;;13.20;99.90;;;;;;5030725;28;20521;-71
2023/05/16 03:57:49;;;;;;;37.47;20.70;;;13.20;99.90;;;;;;5027343;28;20072;-69
2023/05/16 04:00:15;;;;;;;32.80;19.45;;;13.10;99.90;;;;;;5027380;28;20045;-69
2023/05/16 04:02:41;;;;;;;32.30;19.65;;;13.20;99.90;;;;;;5026939;28;20041;-72
2023/05/16 04:05:08;;;;;;;29.00;19.50;;;13.10;99.90;;;;;;5026980;28;20028;-72
2023/05/16 04:07:34;;;;;;;35.05;21.63;;;13.10;99.90;;;;;;5030366;28;20366;-69
2023/05/16 04:10:00;;;;;;;38.72;21.15;;;13.10;99.90;;;;;;5028737;28;20037;-71
2023/05/16 04:12:26;;;;;;;33.90;20.30;;;13.10;99.90;;;;;;5029677;28;20049;-72
2023/05/16 04:14:52;;;;;;;34.10;21.47;;;13.10;99.90;;;;;;5031565;28;20025;-70
2023/05/16 04:17:17;;;;;;;36.47;21.27;;;13.10;99.90;;;;;;5027523;28;20437;-72
2023/05/16 04:19:43;;;;;;;36.93;21.30;;;13.10;99.90;;;;;;5030173;28;20429;-69
2023/05/16 04:22:09;;;;;;;34.60;20.73;;;13.10;99.90;;;;;;5032438;28;20083;-72
2023/05/16 04:24:34;;;;;;;37.80;21.30;;;13.00;99.90;;;;;;5024988;28;20036;-71
2023/05/16 04:27:00;;;;;;;35.00;22.47;;;13.10;99.90;;;;;;5038435;28;20032;-72
2023/05/16 04:29:26;;;;;;;33.38;20.75;;;13.10;99.90;;;;;;5035275;28;20033;-73
2023/05/16 04:31:52;;;;;;;33.17;20.57;;;13.10;99.90;;;;;;5024413;28;20242;-72
2023/05/16 04:34:17;;;;;;;35.93;21.20;;;13.10;99.90;;;;;;5028390;28;20029;-69
2023/05/16 04:36:43;;;;;;;34.73;21.70;;;13.10;99.90;;;;;;5030411;28;20421;-69
2023/05/16 04:39:09;;;;;;;36.73;20.57;;;13.10;99.90;;;;;;5033776;28;20036;-71
2023/05/16 04:41:35;;;;;;;34.07;22.63;;;13.10;99.90;;;;;;5027809;28;20026;-68
2023/05/16 04:44:05;;;;;;;36.63;20.13;;;13.10;99.90;;;;;;5029896;28;20022;-70
2023/05/16 04:46:30;;;;;;;37.17;20.83;;;13.10;99.90;;;;;;5029986;28;20140;-72
2023/05/16 04:48:56;;;;;;;34.67;20.90;;;13.10;99.90;;;;;;5030737;28;20104;-69
2023/05/16 04:51:22;;;;;;;33.23;21.33;;;13.10;99.90;;;;;;5031261;28;20037;-71
2023/05/16 04:53:48;;;;;;;32.73;19.77;;;13.10;99.90;;;;;;5027021;28;20025;-73
2023/05/16 04:56:13;;;;;;;33.53;18.73;;;13.10;99.90;;;;;;5036377;28;20306;-76
2023/05/16 04:58:39;;;;;;;35.30;19.63;;;13.10;99.90;;;;;;5032102;28;20033;-74
2023/05/16 05:01:05;;;;;;;30.77;19.40;;;13.10;99.90;;;;;;5033247;28;20026;-69
2023/05/16 05:03:30;;;;;;;35.63;20.20;;;13.10;99.90;;;;;;5028968;28;20041;-73
2023/05/16 05:05:56;;;;;;;35.60;19.97;;;13.10;99.90;;;;;;5031539;28;20063;-73
2023/05/16 05:08:22;;;;;;;34.20;20.03;;;13.10;99.90;;;;;;5028146;28;20040;-75
2023/05/16 05:10:47;;;;;;;37.20;20.90;;;13.20;99.90;;;;;;5030221;28;20171;-75
2023/05/16 05:13:13;;;;;;;36.30;21.60;;;13.10;99.90;;;;;;5034013;28;20017;-74
2023/05/16 05:15:38;;;;;;;33.57;21.23;;;13.10;99.90;;;;;;5032564;28;20084;-77
2023/05/16 05:18:04;;;;;;;36.50;20.03;;;13.10;99.90;;;;;;5027041;28;20037;-74
2023/05/16 05:20:30;;;;;;;33.53;21.13;;;13.10;99.90;;;;;;5030976;28;20075;-73
2023/05/16 05:22:55;;;;;;;37.60;21.33;;;13.10;99.90;;;;;;5034857;28;20033;-71
2023/05/16 05:25:21;;;;;;;38.55;21.17;;;13.00;99.90;;;;;;5029768;28;20413;-70
2023/05/16 05:27:47;;;;;;;41.90;21.63;;;13.10;99.90;;;;;;5034392;28;20041;-75
2023/05/16 05:30:12;;;;;;;29.90;18.90;;;13.00;99.90;;;;;;5029472;28;20061;-74
2023/05/16 05:32:38;;;;;;;35.37;20.67;;;13.10;99.90;;;;;;5023976;28;20033;-72
2023/05/16 05:35:04;;;;;;;29.80;19.33;;;13.00;99.90;;;;;;5061863;28;20857;-71
2023/05/16 05:37:30;;;;;;;35.83;19.77;;;13.00;99.90;;;;;;5065292;28;20065;-71
2023/05/16 05:39:56;;;;;;;32.33;18.95;;;13.00;99.90;;;;;;5023119;28;20073;-74
2023/05/16 05:42:22;;;;;;;35.87;18.63;;;13.00;99.90;;;;;;5027990;28;20401;-71
2023/05/16 05:44:47;;;;;;;33.00;19.20;;;13.00;99.90;;;;;;5030890;28;20034;-75
2023/05/16 05:47:13;;;;;;;40.90;19.07;;;13.10;99.90;;;;;;5023765;28;20044;-75
2023/05/16 05:49:39;;;;;;;41.53;20.85;;;13.00;99.90;;;;;;5027087;28;20048;-74
2023/05/16 05:52:05;;;;;;;40.40;20.67;;;13.00;99.90;;;;;;5028792;28;20059;-74
2023/05/16 05:54:31;;;;;;;33.75;19.02;;;13.10;99.90;;;;;;5027851;28;20021;-70
2023/05/16 05:56:57;;;;;;;46.13;20.42;;;13.10;99.90;;;;;;5027635;28;20469;-69
2023/05/16 05:59:23;;;;;;;35.57;19.20;;;13.10;99.90;;;;;;5028213;28;20060;-76
2023/05/16 06:01:51;;;;;;;34.95;19.73;;;13.10;99.90;;;;;;5041411;28;20037;-73
2023/05/16 06:04:18;;;;;;;32.42;19.42;;;13.00;99.90;;;;;;5026635;28;20485;-74
2023/05/16 06:06:43;;;;;;;;;;;13.00;99.90;;;;;;5024090;28;20025;-73
2023/05/16 06:09:09;;;;;;;38.65;19.70;;;13.10;99.90;;;;;;5040606;28;20011;-74
2023/05/16 06:11:35;;;;;;;34.33;20.10;;;13.10;99.90;;;;;;5022939;28;20216;-73
2023/05/16 06:14:00;;;;;;;31.77;19.13;;;13.10;99.90;;;;;;5030615;28;20036;-71
2023/05/16 06:16:26;;;;;;;39.03;20.30;;;13.00;99.90;;;;;;5050153;28;20041;-79
2023/05/16 06:18:51;;;;;;;39.57;19.57;;;13.00;99.90;;;;;;5033322;28;20114;-69
2023/05/16 06:21:17;;;;;;;36.30;20.50;;;13.10;99.90;;;;;;5028763;28;20520;-73
2023/05/16 06:23:43;;;;;;;32.30;18.70;;;13.10;99.90;;;;;;5028085;28;20045;-77
2023/05/16 06:26:08;;;;;;;297.43;160.87;;;13.10;99.90;;;;;;5029765;28;20444;-72
2023/05/16 06:28:34;;;;;;;75.00;44.40;;;13.20;99.90;;;;;;5023830;28;20417;-70
2023/05/16 06:30:59;;;;;;;37.17;20.73;;;13.60;99.90;;;;;;5027443;28;20453;-70
2023/05/16 06:33:25;;;;;;;31.40;18.17;;;13.70;99.90;;;;;;5026203;28;20030;-72
2023/05/16 06:35:51;;;;;;;33.00;18.47;;;13.50;99.90;;;;;;5044914;28;20532;-70
2023/05/16 06:38:21;;;;;;;33.27;18.30;;;13.30;99.90;;;;;;5030219;28;20560;-70
2023/05/16 06:40:46;;;;;;;43.22;23.23;;;13.10;99.90;;;;;;5029542;28;20284;-72
2023/05/16 06:43:12;;;;;;;37.17;21.33;;;13.20;99.90;;;;;;5032990;28;20044;-70
2023/05/16 06:45:37;;;;;;;34.90;19.43;;;13.10;99.90;;;;;;5027815;28;20397;-70
2023/05/16 06:48:05;;;;;;;34.57;18.43;;;13.00;99.90;;;;;;5029858;28;20030;-70
2023/05/16 06:50:30;;;;;;;34.83;17.73;;;13.10;99.90;;;;;;5034755;28;20719;-71
2023/05/16 06:52:56;;;;;;;36.30;18.77;;;13.10;99.90;;;;;;5048252;28;20017;-70
2023/05/16 06:55:22;;;;;;;34.83;19.63;;;13.00;99.90;;;;;;5026486;28;20547;-70
2023/05/16 06:57:48;;;;;;;53.83;33.58;;;12.90;99.90;;;;;;5024777;28;20099;-70
2023/05/16 07:00:14;;;;;;;36.10;19.00;;;12.90;99.90;;;;;;5021992;28;20038;-71
2023/05/16 07:02:39;;;;;;;34.65;18.60;;;12.90;99.90;;;;;;5028620;28;20498;-70
2023/05/16 07:05:06;;;;;;;45.67;24.07;;;12.90;99.90;;;;;;5027972;28;20022;-70
2023/05/16 07:07:35;;;;;;;29.17;17.10;;;13.00;99.90;;;;;;5031407;28;20033;-71
2023/05/16 07:10:01;;;;;;;98.30;53.92;;;13.00;99.90;;;;;;5061048;28;20033;-71
2023/05/16 07:12:26;;;;;;;48.60;22.63;;;13.30;99.90;;;;;;5030247;28;20045;-68
2023/05/16 07:14:52;;;;;;;33.87;17.97;;;13.60;99.90;;;;;;5027322;28;20498;-69
2023/05/16 07:17:17;;;;;;;35.60;17.17;;;14.20;99.90;;;;;;5028953;28;20060;-70
2023/05/16 07:19:43;;;;;;;36.70;20.10;;;14.10;99.90;;;;;;5030614;28;20109;-69
2023/05/16 07:22:09;;;;;;;41.37;19.13;;;14.00;99.90;;;;;;5029930;28;20018;-72
2023/05/16 07:24:35;;;;;;;33.83;15.32;;;13.80;99.90;;;;;;5021800;28;20055;-70
2023/05/16 07:27:01;;;;;;;24.93;15.50;;;13.60;99.90;;;;;;5026522;28;20065;-70
2023/05/16 07:29:26;;;;;;;30.37;16.47;;;13.40;99.90;;;;;;5032326;28;20176;-71
2023/05/16 07:31:52;;;;;;;28.30;16.57;;;13.20;99.90;;;;;;5027786;28;20083;-71
2023/05/16 07:34:18;;;;;;;27.50;14.45;;;13.10;99.90;;;;;;5029470;28;20037;-71
2023/05/16 07:36:44;;;;;;;30.48;15.45;;;13.00;99.90;;;;;;5025260;28;20107;-70
2023/05/16 07:39:10;;;;;;;26.77;15.73;;;13.10;99.90;;;;;;5024164;28;20489;-71
2023/05/16 07:41:35;;;;;;;28.77;15.13;;;13.00;99.90;;;;;;5028246;28;20029;-71
2023/05/16 07:44:01;;;;;;;24.17;13.93;;;12.90;99.90;;;;;;5035723;28;20021;-71
2023/05/16 07:46:27;;;;;;;24.93;13.97;;;13.00;99.90;;;;;;5032129;28;20492;-70
2023/05/16 07:48:52;;;;;;;24.23;13.17;;;13.00;99.90;;;;;;5031182;28;20131;-71
2023/05/16 07:51:18;;;;;;;19.77;12.20;;;13.00;99.90;;;;;;5029110;28;20037;-71
2023/05/16 07:53:43;;;;;;;23.87;13.30;;;12.80;99.90;;;;;;5031776;28;20083;-71
2023/05/16 07:56:09;;;;;;;19.70;11.47;;;12.90;99.90;;;;;;5027422;28;20025;-70
2023/05/16 07:58:35;;;;;;;26.10;11.75;;;12.80;99.90;;;;;;5033111;28;20041;-71
2023/05/16 08:01:01;;;;;;;17.83;11.70;;;12.80;99.90;;;;;;5042806;28;20032;-70
2023/05/16 08:03:26;;;;;;;23.93;11.90;;;12.80;99.90;;;;;;5032957;28;20033;-70
2023/05/16 08:05:52;;;;;;;28.03;14.23;;;12.80;99.90;;;;;;5031287;28;20549;-70
2023/05/16 08:08:18;;;;;;;31.00;11.67;;;12.70;99.90;;;;;;5026202;28;20025;-70
2023/05/16 08:10:43;;;;;;;32.57;10.90;;;12.80;99.90;;;;;;5026930;28;20110;-70
2023/05/16 08:13:09;;;;;;;24.10;12.15;;;12.80;99.90;;;;;;5028562;28;20412;-71
2023/05/16 08:15:35;;;;;;;21.90;11.10;;;12.80;99.90;;;;;;5030539;28;20490;-73
2023/05/16 08:18:01;;;;;;;20.50;11.00;;;12.80;99.90;;;;;;5033530;28;20041;-72
2023/05/16 08:20:27;;;;;;;19.27;10.23;;;12.80;99.90;;;;;;5030463;28;20018;-72
2023/05/16 08:22:53;;;;;;;19.77;11.33;;;12.70;99.90;;;;;;5030882;28;20413;-71
2023/05/16 08:25:21;;;;;;;21.83;10.60;;;12.60;99.90;;;;;;5021656;28;20101;-71
2023/05/16 08:27:48;;;;;;;16.98;10.50;;;12.70;99.90;;;;;;5023893;28;20494;-71
2023/05/16 08:30:14;;;;;;;24.13;12.70;;;12.70;99.90;;;;;;5027535;28;20033;-72
2023/05/16 08:32:40;;;;;;;20.07;12.00;;;12.80;99.90;;;;;;5029249;28;20041;-70
2023/05/16 08:35:06;;;;;;;18.58;11.73;;;12.80;99.90;;;;;;5036959;28;20122;-71
2023/05/16 08:37:33;;;;;;;17.02;11.50;;;12.70;99.90;;;;;;5027073;28;20077;-71
2023/05/16 08:39:59;;;;;;;39.33;23.30;;;12.70;99.90;;;;;;5028125;28;20025;-69
2023/05/16 08:42:24;;;;;;;36.90;14.03;;;12.80;99.90;;;;;;5030315;28;20075;-71
2023/05/16 08:44:50;;;;;;;22.87;11.50;;;12.90;99.90;;;;;;5030088;28;20109;-70
2023/05/16 08:47:23;;;;;;;19.00;11.53;;;13.10;99.90;;;;;;5032881;28;20044;-70
2023/05/16 08:49:50;;;;;;;18.38;11.70;;;13.00;99.90;;;;;;5027267;28;20045;-71
2023/05/16 08:52:19;;;;;;;24.52;12.02;;;12.90;99.90;;;;;;5029734;28;20033;-69
2023/05/16 08:54:45;;;;;;;22.50;12.18;;;12.90;99.90;;;;;;5027698;28;20079;-71
2023/05/16 08:57:13;;;;;;;21.38;12.75;;;13.00;99.90;;;;;;5030399;28;20634;-71
2023/05/16 08:59:40;;;;;;;23.58;12.68;;;13.30;99.90;;;;;;5030388;28;20064;-70
2023/05/16 09:02:09;;;;;;;20.63;10.52;;;13.60;99.90;;;;;;5050142;28;20036;-69
2023/05/16 09:04:36;;;;;;;26.67;12.93;;;13.50;99.90;;;;;;5026972;28;20580;-69
2023/05/16 09:07:02;;;;;;;20.20;10.90;;;13.70;99.90;;;;;;5027601;28;20048;-70
2023/05/16 09:09:30;;;;;;;21.75;12.02;;;14.00;99.90;;;;;;5030679;28;20025;-69
2023/05/16 09:11:56;;;;;;;20.50;11.55;;;14.00;99.90;;;;;;5045744;28;20037;-70
2023/05/16 09:14:22;;;;;;;22.93;11.17;;;13.80;99.90;;;;;;5029436;28;20036;-70
2023/05/16 09:17:08;;;;;;;16.43;10.07;;;13.90;99.90;;;;;;5029875;28;20671;-70
2023/05/16 09:19:41;;;;;;;24.55;11.48;;;13.90;99.90;;;;;;5026494;28;20033;-70
2023/05/16 09:22:14;;;;;;;16.80;10.57;;;13.90;99.90;;;;;;5034214;28;20097;-71
2023/05/16 09:24:42;;;;;;;19.20;11.05;;;13.80;99.90;;;;;;5024693;28;20029;-70
2023/05/16 09:27:13;;;;;;;22.17;11.05;;;13.80;99.90;;;;;;5028730;28;20037;-71
2023/05/16 09:29:42;;;;;;;21.27;11.05;;;13.80;99.90;;;;;;5025076;28;20032;-71
2023/05/16 09:32:16;;;;;;;26.50;11.30;;;13.90;99.90;;;;;;5025748;28;20040;-71
2023/05/16 09:34:48;;;;;;;23.38;11.82;;;13.70;99.90;;;;;;5030574;28;20029;-71
2023/05/16 09:37:14;;;;;;;23.55;12.13;;;13.70;99.90;;;;;;5029136;28;20076;-71
2023/05/16 09:39:48;;;;;;;26.00;11.50;;;13.50;99.90;;;;;;5026163;28;20047;-71
2023/05/16 09:42:15;;;;;;;38.08;22.17;;;13.30;99.90;;;;;;5025333;28;20536;-71
2023/05/16 09:44:40;;;;;;;;;;;13.30;99.90;;;;;;5026743;28;20025;-70
2023/05/16 09:47:06;;;;;;;22.80;12.13;;;13.10;99.90;;;;;;5032684;28;20311;-71
2023/05/16 09:49:32;;;;;;;26.63;12.83;;;13.20;99.90;;;;;;5032402;28;20033;-70
2023/05/16 09:52:02;;;;;;;336.93;30.13;;;13.20;99.90;;;;;;5027548;28;20298;-71
2023/05/16 09:54:32;;;;;;;26.20;12.57;;;13.10;99.90;;;;;;5024831;28;20038;-70
2023/05/16 09:56:59;;;;;;;20.60;12.20;;;13.10;99.90;;;;;;5025513;28;21830;-71
2023/05/16 09:59:30;;;;;;;20.58;12.05;;;13.00;99.90;;;;;;5026628;28;20111;-71
2023/05/16 10:01:59;;;;;;;21.60;12.57;;;13.00;99.90;;;;;;5029659;28;20029;-71
2023/05/16 10:04:25;;;;;;;19.60;11.70;;;13.00;99.90;;;;;;5023628;28;20033;-71
2023/05/16 10:06:51;;;;;;;34.95;12.68;;;13.10;99.90;;;;;;5031020;28;20017;-71
2023/05/16 10:09:18;;;;;;;24.40;13.27;;;13.10;99.90;;;;;;5029197;28;20045;-71
2023/05/16 10:11:45;;;;;;;21.48;11.98;;;13.20;99.90;;;;;;5030563;28;20079;-72
2023/05/16 10:14:11;;;;;;;24.90;12.38;;;13.10;99.90;;;;;;5029143;28;20119;-70
2023/05/16 10:16:40;;;;;;;30.90;13.18;;;13.30;99.90;;;;;;5028239;28;20021;-71
2023/05/16 10:19:05;;;;;;;25.45;12.98;;;13.40;99.90;;;;;;5029751;28;20037;-70
2023/05/16 10:21:32;;;;;;;25.30;14.03;;;13.30;99.90;;;;;;5029939;28;20421;-70
2023/05/16 10:24:02;;;;;;;25.98;12.98;;;13.40;99.90;;;;;;5022980;28;20040;-70
2023/05/16 10:26:28;;;;;;;24.73;12.73;;;13.50;99.90;;;;;;5028410;28;20890;-70
2023/05/16 10:28:54;;;;;;;;;;;13.60;99.90;;;;;;5030488;28;20097;-70
2023/05/16 10:31:20;;;;;;;23.13;11.43;;;13.70;99.90;;;;;;5026260;28;20011;-70
2023/05/16 10:33:46;;;;;;;24.63;12.60;;;13.80;99.90;;;;;;5027044;28;20384;-71
2023/05/16 10:36:12;;;;;;;;;;;13.90;99.90;;;;;;5027883;28;20061;-70
2023/05/16 10:38:39;;;;;;;22.65;12.80;;;14.10;99.90;;;;;;5028250;28;19933;-70
2023/05/16 10:41:06;;;;;;;25.17;13.07;;;14.30;99.90;;;;;;5026471;28;20056;-73
2023/05/16 10:43:32;;;;;;;20.40;11.70;;;15.00;99.90;;;;;;5024203;28;20163;-69
2023/05/16 10:46:10;;;;;;;29.63;12.93;;;15.30;99.90;;;;;;5058735;28;20497;-70
2023/05/16 10:48:38;;;;;;;23.35;12.93;;;15.70;99.90;;;;;;5027807;28;20036;-71
2023/05/16 10:51:33;;;;;;;27.58;13.27;;;15.60;99.90;;;;;;5027948;28;20186;-70
2023/05/16 10:54:11;;;;;;;20.33;12.68;;;15.70;99.90;;;;;;5025556;28;20040;-70
2023/05/16 10:56:37;;;;;;;19.67;12.52;;;15.20;99.90;;;;;;5023175;28;20040;-70
2023/05/16 10:59:03;;;;;;;22.05;11.48;;;14.90;99.90;;;;;;5026748;28;20029;-70
2023/05/16 11:01:33;;;;;;;19.75;11.43;;;14.80;99.90;;;;;;5039270;28;20394;-70
2023/05/16 11:04:07;;;;;;;22.48;11.55;;;14.50;99.90;;;;;;5027065;28;20039;-70
2023/05/16 11:06:46;;;;;;;22.13;11.30;;;14.60;99.90;;;;;;5062961;28;20125;-70
2023/05/16 11:09:12;;;;;;;20.38;12.20;;;14.60;99.90;;;;;;5024495;28;20033;-70
2023/05/16 11:11:39;;;;;;;22.15;12.00;;;14.50;99.90;;;;;;5024089;28;20983;-70
2023/05/16 11:14:04;;;;;;;25.50;12.60;;;14.20;99.90;;;;;;5025446;28;20053;-70
2023/05/16 11:16:30;;;;;;;19.90;11.50;;;14.10;99.90;;;;;;5032269;28;20382;-70
2023/05/16 11:19:05;;;;;;;38.83;13.33;;;14.20;99.90;;;;;;5048761;28;20045;-69
2023/05/16 11:22:09;;;;;;;23.00;12.75;;;14.00;99.90;;;;;;5029507;28;20049;-70
2023/05/16 11:24:37;;;;;;;27.42;13.38;;;14.20;99.90;;;;;;5029363;28;20108;-70
2023/05/16 11:27:24;;;;;;;19.52;11.85;;;14.30;99.90;;;;;;5045246;28;20037;-70
2023/05/16 11:29:50;;;;;;;20.05;10.60;;;14.20;99.90;;;;;;5031335;28;20033;-68
2023/05/16 11:32:20;;;;;;;27.67;10.27;;;14.00;99.90;;;;;;5034370;28;20140;-70
2023/05/16 11:34:47;;;;;;;21.70;11.50;;;14.00;99.90;;;;;;5036620;28;20104;-70
2023/05/16 11:37:14;;;;;;;23.20;10.38;;;14.00;99.90;;;;;;5033443;28;20073;-70
2023/05/16 11:39:40;;;;;;;19.30;10.20;;;14.10;99.90;;;;;;5031811;28;20059;-69
2023/05/16 11:42:05;;;;;;;28.17;9.70;;;14.00;99.90;;;;;;5028720;28;20037;-70
2023/05/16 11:44:31;;;;;;;16.13;10.17;;;14.10;99.90;;;;;;5035634;28;20079;-70
2023/05/16 11:46:57;;;;;;;20.63;10.30;;;14.00;99.90;;;;;;5031052;28;20057;-69
2023/05/16 11:49:22;;;;;;;17.77;9.57;;;14.00;99.90;;;;;;5029710;28;20029;-70
2023/05/16 11:51:50;;;;;;;18.00;9.33;;;14.00;99.90;;;;;;5034235;28;20637;-69
2023/05/16 11:54:18;;;;;;;18.50;9.23;;;14.00;99.90;;;;;;5026554;28;20032;-68
2023/05/16 11:56:44;;;;;;;25.02;11.38;;;13.90;99.90;;;;;;5029860;28;20048;-69
2023/05/16 11:59:10;;;;;;;13.40;9.40;;;13.70;99.90;;;;;;5035951;28;20429;-71
2023/05/16 12:01:37;;;;;;;18.67;10.10;;;14.30;99.90;;;;;;5034691;28;20096;-68
2023/05/16 12:04:13;;;;;;;19.70;10.55;;;14.30;99.90;;;;;;5030617;28;20615;-69
2023/05/16 12:06:42;;;;;;;15.07;8.25;;;14.00;99.90;;;;;;5032807;28;20128;-68
2023/05/16 12:09:12;;;;;;;17.25;10.45;;;13.70;99.90;;;;;;5035663;28;20037;-69
2023/05/16 12:11:41;;;;;;;18.00;8.90;;;13.60;99.90;;;;;;5064421;28;20029;-69
2023/05/16 12:14:09;;;;;;;16.83;8.15;;;13.40;99.90;;;;;;5025997;28;20040;-68
2023/05/16 12:16:36;;;;;;;23.20;8.48;;;13.50;99.90;;;;;;5025161;28;20017;-68
2023/05/16 12:19:06;;;;;;;18.38;9.45;;;13.40;99.90;;;;;;5031735;28;20420;-69
2023/05/16 12:21:32;;;;;;;15.60;8.85;;;13.50;99.90;;;;;;5027924;28;20025;-69
2023/05/16 12:23:58;;;;;;;11.63;8.20;;;13.50;99.90;;;;;;5026556;28;20037;-69
2023/05/16 12:26:29;;;;;;;15.60;8.25;;;13.60;99.90;;;;;;5031233;28;20037;-68
2023/05/16 12:29:04;;;;;;;19.30;8.85;;;13.70;99.90;;;;;;5029469;28;20334;-68
2023/05/16 12:31:34;;;;;;;14.23;8.68;;;13.80;99.90;;;;;;5026554;28;20040;-67